createdAt,value
2022-08-02T00:02:31.206Z,95195.53
2022-08-02T00:05:53.657Z,95196.00
2022-08-02T00:09:02.249Z,95199.88
2022-08-02T00:12:12.592Z,95202.00
2022-08-02T00:15:21.126Z,95201.25
2022-08-02T00:18:30.836Z,95209.28
2022-08-02T00:21:39.124Z,95207.00
2022-08-02T00:24:47.276Z,95204.88
2022-08-02T00:27:55.767Z,95212.16
2022-08-02T00:31:04.128Z,95201.22
2022-08-02T00:34:28.741Z,95211.28
2022-08-02T00:37:43.041Z,95194.31
2022-08-02T00:40:58.003Z,95204.16
2022-08-02T00:44:06.592Z,95194.44
2022-08-02T00:47:19.478Z,95214.44
2022-08-02T00:50:30.485Z,95215.50
2022-08-02T00:53:39.922Z,95213.28
2022-08-02T00:56:51.040Z,95218.19
2022-08-02T00:59:59.583Z,95213.13
2022-08-02T01:03:07.932Z,95211.13
2022-08-02T01:06:18.157Z,95209.56
2022-08-02T01:09:26.801Z,95201.22
2022-08-02T01:12:35.768Z,95199.25
2022-08-02T01:15:56.374Z,95193.53
2022-08-02T01:19:30.257Z,95190.84
2022-08-02T01:23:24.749Z,95191.66
2022-08-02T01:26:50.258Z,95195.78
2022-08-02T01:30:02.445Z,95196.06
2022-08-02T01:33:19.364Z,95192.25
2022-08-02T01:36:34.116Z,95191.44
2022-08-02T01:39:47.043Z,95182.47
2022-08-02T01:42:57.867Z,95189.94
2022-08-02T01:46:09.363Z,95185.22
2022-08-02T01:49:23.976Z,95187.50
2022-08-02T01:52:38.600Z,95184.38
2022-08-02T01:55:57.682Z,95188.19
2022-08-02T01:59:10.598Z,95193.44
2022-08-02T02:02:22.892Z,95186.09
2022-08-02T02:05:34.046Z,95185.97
2022-08-02T02:08:45.764Z,95185.47
2022-08-02T02:12:11.002Z,95185.34
2022-08-02T02:15:26.204Z,95185.28
2022-08-02T02:18:43.794Z,95182.81
2022-08-02T02:21:52.513Z,95179.41
2022-08-02T02:25:00.767Z,95180.13
2022-08-02T02:28:14.418Z,95182.56
2022-08-02T02:31:23.041Z,95173.25
2022-08-02T02:34:38.757Z,95177.53
2022-08-02T02:37:49.678Z,95171.84
2022-08-02T02:41:02.878Z,95166.28
2022-08-02T02:44:15.655Z,95166.41
2022-08-02T02:47:40.958Z,95163.69
2022-08-02T02:50:53.396Z,95170.31
2022-08-02T02:54:30.249Z,95171.88
2022-08-02T02:57:32.791Z,95175.00
2022-08-02T03:00:59.396Z,95179.41
2022-08-02T03:04:11.817Z,95181.66
2022-08-02T03:07:21.480Z,95187.22
2022-08-02T03:10:29.913Z,95184.72
2022-08-02T03:13:39.219Z,95193.19
2022-08-02T03:16:51.211Z,95194.44
2022-08-02T03:19:59.414Z,95198.47
2022-08-02T03:23:09.203Z,95205.22
2022-08-02T03:26:17.491Z,95203.31
2022-08-02T03:29:25.746Z,95200.47
2022-08-02T03:32:34.527Z,95209.47
2022-08-02T03:35:45.219Z,95206.53
2022-08-02T03:38:56.337Z,95203.03
2022-08-02T03:42:05.670Z,95201.06
2022-08-02T03:45:14.802Z,95195.38
2022-08-02T03:48:34.618Z,95206.59
2022-08-02T03:51:43.985Z,95205.50
2022-08-02T03:54:53.681Z,95207.03
2022-08-02T03:58:02.494Z,95213.91
2022-08-02T04:01:11.029Z,95214.16
2022-08-02T04:04:19.377Z,95217.72
2022-08-02T04:08:02.467Z,95216.66
2022-08-02T04:11:20.166Z,95232.09
2022-08-02T04:14:36.767Z,95231.72
2022-08-02T04:18:01.935Z,95235.59
2022-08-02T04:21:24.195Z,95236.94
2022-08-02T04:24:40.795Z,95232.88
2022-08-02T04:28:16.052Z,95232.41
2022-08-02T04:31:22.175Z,95227.47
2022-08-02T04:34:31.146Z,95229.78
2022-08-02T04:38:08.352Z,95221.88
2022-08-02T04:41:09.501Z,95215.88
2022-08-02T04:44:19.599Z,95230.00
2022-08-02T04:47:54.446Z,95236.31
2022-08-02T04:50:56.170Z,95229.97
2022-08-02T04:54:09.087Z,95237.03
2022-08-02T04:57:35.745Z,95246.31
2022-08-02T05:00:45.833Z,95242.63
2022-08-02T05:03:54.361Z,95253.47
2022-08-02T05:07:02.761Z,95261.19
2022-08-02T05:10:11.612Z,95260.84
2022-08-02T05:13:20.344Z,95262.88
2022-08-02T05:16:31.114Z,95269.13
2022-08-02T05:19:40.321Z,95274.94
2022-08-02T05:22:50.644Z,95275.19
2022-08-02T05:25:58.968Z,95270.91
2022-08-02T05:29:13.340Z,95264.53
2022-08-02T05:32:23.711Z,95262.56
2022-08-02T05:35:35.091Z,95250.19
2022-08-02T05:38:49.731Z,95252.84
2022-08-02T05:41:58.546Z,95254.38
2022-08-02T05:45:08.548Z,95255.16
2022-08-02T05:48:18.434Z,95259.06
2022-08-02T05:51:38.237Z,95268.34
2022-08-02T05:54:55.842Z,95273.00
2022-08-02T05:58:14.439Z,95271.94
2022-08-02T06:01:33.908Z,95280.59
2022-08-02T06:04:58.045Z,95273.13
2022-08-02T06:08:10.230Z,95281.41
2022-08-02T06:11:24.481Z,95282.72
2022-08-02T06:14:35.560Z,95284.50
2022-08-02T06:17:44.121Z,95294.22
2022-08-02T06:22:29.674Z,95285.75
2022-08-02T06:24:28.778Z,95289.47
2022-08-02T06:27:46.922Z,95282.63
2022-08-02T06:31:00.732Z,95289.59
2022-08-02T06:34:09.639Z,95288.16
2022-08-02T06:37:30.853Z,95288.47
2022-08-02T06:40:49.799Z,95288.69
2022-08-02T06:44:26.129Z,95284.50
2022-08-02T06:47:35.272Z,95287.69
2022-08-02T06:50:44.423Z,95278.78
2022-08-02T06:53:54.706Z,95275.34
2022-08-02T06:57:06.040Z,95280.22
2022-08-02T07:00:15.803Z,95273.72
2022-08-02T07:03:25.539Z,95276.63
2022-08-02T07:06:34.043Z,95276.88
2022-08-02T07:09:56.682Z,95274.00
2022-08-02T07:13:09.743Z,95277.00
2022-08-02T07:16:18.523Z,95279.00
2022-08-02T07:19:37.653Z,95273.38
2022-08-02T07:22:46.673Z,95275.94
2022-08-02T07:26:02.411Z,95271.72
2022-08-02T07:29:12.323Z,95277.88
2022-08-02T07:32:28.558Z,95273.34
2022-08-02T07:35:37.824Z,95275.22
2022-08-02T07:38:55.982Z,95270.22
2022-08-02T07:42:07.327Z,95269.66
2022-08-02T07:45:19.319Z,95264.00
2022-08-02T07:48:40.936Z,95270.06
2022-08-02T07:51:54.055Z,95274.03
2022-08-02T07:55:06.101Z,95261.41
2022-08-02T07:58:17.080Z,95264.94
2022-08-02T08:01:27.501Z,95259.72
2022-08-02T08:04:39.390Z,95253.84
2022-08-02T08:07:48.761Z,95253.13
2022-08-02T08:10:57.638Z,95261.72
2022-08-02T08:14:14.672Z,95258.16
2022-08-02T08:17:28.571Z,95260.22
2022-08-02T08:20:37.960Z,95257.09
2022-08-02T08:23:46.902Z,95246.75
2022-08-02T08:26:55.950Z,95250.72
2022-08-02T08:30:10.454Z,95246.31
2022-08-02T08:33:19.080Z,95253.06
2022-08-02T08:36:28.750Z,95249.50
2022-08-02T08:39:56.167Z,95249.56
2022-08-02T08:43:06.830Z,95251.09
2022-08-02T08:46:27.293Z,95243.75
2022-08-02T08:49:52.237Z,95244.56
2022-08-02T08:53:06.197Z,95242.94
2022-08-02T08:56:18.096Z,95244.88
2022-08-02T08:59:27.070Z,95240.22
2022-08-02T09:02:37.671Z,95242.50
2022-08-02T09:05:47.259Z,95237.31
2022-08-02T09:08:55.934Z,95242.63
2022-08-02T09:12:19.759Z,95244.00
2022-08-02T09:15:28.461Z,95237.22
2022-08-02T09:18:41.375Z,95240.34
2022-08-02T09:21:52.318Z,95254.59
2022-08-02T09:25:03.058Z,95244.28
2022-08-02T09:28:11.945Z,95240.53
2022-08-02T09:31:23.823Z,95237.94
2022-08-02T09:34:50.727Z,95246.25
2022-08-02T09:38:11.152Z,95244.31
2022-08-02T09:41:24.081Z,95242.56
2022-08-02T09:44:32.747Z,95239.63
2022-08-02T09:47:40.893Z,95241.53
2022-08-02T09:50:50.508Z,95247.13
2022-08-02T09:54:08.348Z,95243.91
2022-08-02T09:57:28.803Z,95235.63
2022-08-02T10:00:52.450Z,95238.53
2022-08-02T10:04:04.290Z,95244.03
2022-08-02T10:07:15.166Z,95249.59
2022-08-02T10:10:23.791Z,95238.53
2022-08-02T10:13:35.025Z,95231.81
2022-08-02T10:16:45.090Z,95234.94
2022-08-02T10:20:03.101Z,95234.72
2022-08-02T10:23:17.039Z,95231.13
2022-08-02T10:26:26.221Z,95241.09
2022-08-02T10:29:50.465Z,95231.03
2022-08-02T10:33:05.854Z,95232.09
2022-08-02T10:36:16.141Z,95229.13
2022-08-02T10:39:26.601Z,95223.25
2022-08-02T10:42:49.986Z,95220.19
2022-08-02T10:46:36.524Z,95218.16
2022-08-02T10:49:51.591Z,95224.38
2022-08-02T10:53:23.857Z,95210.66
2022-08-02T10:56:48.421Z,95203.69
2022-08-02T11:00:02.235Z,95202.44
2022-08-02T11:03:40.334Z,95199.50
2022-08-02T11:07:10.314Z,95205.66
2022-08-02T11:10:40.559Z,95201.94
2022-08-02T11:14:03.601Z,95209.16
2022-08-02T11:17:17.435Z,95205.19
2022-08-02T11:20:28.843Z,95203.56
2022-08-02T11:23:44.697Z,95200.06
2022-08-02T11:26:55.030Z,95191.19
2022-08-02T11:30:14.771Z,95188.78
2022-08-02T11:33:33.848Z,95175.53
2022-08-02T11:36:59.378Z,95177.19
2022-08-02T11:40:19.677Z,95165.97
2022-08-02T11:43:28.876Z,95170.13
2022-08-02T11:46:38.117Z,95168.81
2022-08-02T11:49:47.088Z,95173.38
2022-08-02T11:52:56.900Z,95176.47
2022-08-02T11:56:05.947Z,95159.28
2022-08-02T11:59:14.609Z,95157.72
2022-08-02T12:02:26.276Z,95158.84
2022-08-02T12:06:04.490Z,95164.28
2022-08-02T12:09:17.872Z,95172.34
2022-08-02T12:12:28.175Z,95169.81
2022-08-02T12:15:41.651Z,95173.06
2022-08-02T12:19:08.584Z,95175.59
2022-08-02T12:22:24.483Z,95185.13
2022-08-02T12:25:38.655Z,95170.09
2022-08-02T12:28:47.251Z,95175.03
2022-08-02T12:31:57.803Z,95171.94
2022-08-02T12:35:11.809Z,95169.00
2022-08-02T12:38:20.616Z,95165.19
2022-08-02T12:41:32.758Z,95159.72
2022-08-02T12:44:53.804Z,95156.00
2022-08-02T12:48:03.480Z,95152.72
2022-08-02T12:51:24.820Z,95148.16
2022-08-02T12:54:53.297Z,95145.91
2022-08-02T12:58:06.422Z,95133.78
2022-08-02T13:01:23.528Z,95142.09
2022-08-02T13:04:32.167Z,95133.66
2022-08-02T13:07:40.696Z,95127.56
2022-08-02T13:10:49.249Z,95124.03
2022-08-02T13:14:00.422Z,95129.59
2022-08-02T13:17:08.899Z,95131.22
2022-08-02T13:20:18.082Z,95129.44
2022-08-02T13:23:33.666Z,95132.31
2022-08-02T13:26:55.369Z,95121.50
2022-08-02T13:30:08.324Z,95120.31
2022-08-02T13:33:17.849Z,95118.72
2022-08-02T13:36:26.007Z,95119.44
2022-08-02T13:39:34.513Z,95109.66
2022-08-02T13:42:43.170Z,95112.44
2022-08-02T13:45:54.343Z,95107.09
2022-08-02T13:49:03.178Z,95102.91
2022-08-02T13:52:12.411Z,95101.75
2022-08-02T13:55:21.275Z,95098.81
2022-08-02T13:58:31.082Z,95090.75
2022-08-02T14:01:41.514Z,95093.53
2022-08-02T14:04:50.171Z,95090.50
2022-08-02T14:08:00.285Z,95096.09
2022-08-02T14:11:10.060Z,95089.44
2022-08-02T14:14:18.323Z,95090.56
2022-08-02T14:17:28.037Z,95083.94
2022-08-02T14:20:41.297Z,95082.22
2022-08-02T14:23:51.084Z,95089.66
2022-08-02T14:26:59.436Z,95078.78
2022-08-02T14:30:09.721Z,95068.59
2022-08-02T14:33:20.091Z,95079.06
2022-08-02T14:36:28.438Z,95069.25
2022-08-02T14:39:43.400Z,95069.00
2022-08-02T14:43:06.172Z,95073.94
2022-08-02T14:46:17.058Z,95067.94
2022-08-02T14:49:27.321Z,95064.09
2022-08-02T14:52:35.966Z,95070.09
2022-08-02T14:55:44.508Z,95074.16
2022-08-02T14:58:52.786Z,95073.59
2022-08-02T15:02:01.374Z,95072.72
2022-08-02T15:05:11.357Z,95072.16
2022-08-02T15:08:19.918Z,95069.66
2022-08-02T15:11:28.757Z,95073.72
2022-08-02T15:14:37.170Z,95072.84
2022-08-02T15:17:46.879Z,95072.13
2022-08-02T15:21:01.584Z,95074.41
2022-08-02T15:24:20.088Z,95077.81
2022-08-02T15:27:28.677Z,95074.31
2022-08-02T15:30:38.597Z,95064.66
2022-08-02T15:33:47.202Z,95063.84
2022-08-02T15:36:57.264Z,95064.84
2022-08-02T15:40:07.158Z,95067.47
2022-08-02T15:43:15.328Z,95055.38
2022-08-02T15:46:23.625Z,95066.47
2022-08-02T15:49:41.542Z,95072.34
2022-08-02T15:52:51.699Z,95066.09
2022-08-02T15:56:05.580Z,95067.41
2022-08-02T15:59:16.202Z,95068.16
2022-08-02T16:02:24.880Z,95066.59
2022-08-02T16:05:33.290Z,95065.88
2022-08-02T16:08:53.754Z,95067.06
2022-08-02T16:12:04.390Z,95073.28
2022-08-02T16:15:13.763Z,95068.56
2022-08-02T16:18:22.229Z,95059.31
2022-08-02T16:21:30.950Z,95073.28
2022-08-02T16:24:41.815Z,95067.19
2022-08-02T16:27:57.614Z,95068.59
2022-08-02T16:31:15.210Z,95062.59
2022-08-02T16:34:23.678Z,95064.44
2022-08-02T16:37:51.925Z,95060.41
2022-08-02T16:41:01.886Z,95053.28
2022-08-02T16:44:10.742Z,95045.75
2022-08-02T16:47:19.087Z,95039.75
2022-08-02T16:50:46.358Z,95037.53
2022-08-02T16:54:00.623Z,95036.06
2022-08-02T16:57:14.574Z,95028.09
2022-08-02T17:00:23.985Z,95034.00
2022-08-02T17:03:55.729Z,95035.44
2022-08-02T17:07:00.673Z,95036.13
2022-08-02T17:10:10.338Z,95039.59
2022-08-02T17:13:20.257Z,95045.22
2022-08-02T17:16:28.687Z,95044.84
2022-08-02T17:19:38.213Z,95037.53
2022-08-02T17:22:47.006Z,95051.44
2022-08-02T17:25:58.950Z,95058.41
2022-08-02T17:29:14.576Z,95056.38
2022-08-02T17:32:25.389Z,95057.56
2022-08-02T17:35:43.221Z,95051.94
2022-08-02T17:39:06.977Z,95054.72
2022-08-02T17:42:19.573Z,95053.34
2022-08-02T17:46:00.534Z,95059.16
2022-08-02T17:49:16.103Z,95062.38
2022-08-02T17:55:53.768Z,95065.56
2022-08-02T17:59:12.837Z,95067.88
2022-08-02T18:02:30.817Z,95068.28
2022-08-02T18:05:53.378Z,95070.91
2022-08-02T18:09:05.452Z,95061.97
2022-08-02T18:12:20.158Z,95068.91
2022-08-02T18:15:29.714Z,95074.13
2022-08-02T18:18:45.287Z,95072.50
2022-08-02T18:21:53.913Z,95071.16
2022-08-02T18:28:31.916Z,95075.22
2022-08-02T18:31:50.869Z,95072.78
2022-08-02T18:35:01.758Z,95077.44
2022-08-02T18:38:12.343Z,95074.16
2022-08-02T18:41:21.364Z,95075.56
2022-08-02T18:44:31.057Z,95077.47
2022-08-02T18:47:39.350Z,95075.72
2022-08-02T18:50:50.024Z,95083.13
2022-08-02T18:53:58.588Z,95083.72
2022-08-02T18:58:01.703Z,95087.81
2022-08-02T19:00:40.275Z,95085.50
2022-08-02T19:03:50.651Z,95093.03
2022-08-02T19:07:03.956Z,95093.47
2022-08-02T19:10:16.647Z,95083.25
2022-08-02T19:13:26.717Z,95089.66
2022-08-02T19:16:36.978Z,95090.63
2022-08-02T19:19:47.065Z,95095.34
2022-08-02T19:22:56.864Z,95096.38
2022-08-02T19:26:08.294Z,95095.75
2022-08-02T19:29:18.854Z,95093.34
2022-08-02T19:36:18.117Z,95095.56
2022-08-02T19:39:30.241Z,95100.19
2022-08-02T19:42:55.647Z,95106.03
2022-08-02T19:46:08.270Z,95103.00
2022-08-02T19:49:39.588Z,95106.13
2022-08-02T19:52:49.057Z,95108.47
2022-08-02T19:56:03.246Z,95108.84
2022-08-02T19:59:13.129Z,95107.34
2022-08-02T20:02:24.572Z,95108.91
2022-08-02T20:05:33.348Z,95103.91
2022-08-02T20:08:45.314Z,95112.41
2022-08-02T20:12:04.409Z,95103.16
2022-08-02T20:15:15.842Z,95106.63
2022-08-02T20:18:26.805Z,95113.59
2022-08-02T20:21:42.041Z,95112.81
2022-08-02T20:24:55.304Z,95113.59
2022-08-02T20:28:08.267Z,95110.50
2022-08-02T20:31:17.350Z,95102.06
2022-08-02T20:34:26.993Z,95119.75
2022-08-02T20:37:59.722Z,95113.22
2022-08-02T20:41:04.414Z,95102.81
2022-08-02T20:44:16.154Z,95108.56
2022-08-02T20:47:40.550Z,95109.72
2022-08-02T20:50:50.735Z,95105.84
2022-08-02T20:54:00.814Z,95101.66
2022-08-02T20:57:10.707Z,95105.09
2022-08-02T21:00:21.064Z,95106.59
2022-08-02T21:03:38.986Z,95103.94
2022-08-02T21:06:47.901Z,95102.78
2022-08-02T21:09:56.430Z,95103.16
2022-08-02T21:13:13.948Z,95102.34
2022-08-02T21:16:28.764Z,95099.66
2022-08-02T21:19:37.947Z,95102.28
2022-08-02T21:22:54.028Z,95093.41
2022-08-02T21:26:02.497Z,95093.00
2022-08-02T21:29:13.694Z,95091.81
2022-08-02T21:32:24.161Z,95093.31
2022-08-02T21:35:33.869Z,95091.75
2022-08-02T21:38:42.287Z,95086.75
2022-08-02T21:41:51.630Z,95089.03
2022-08-02T21:44:59.868Z,95088.66
2022-08-02T21:48:09.737Z,95084.41
2022-08-02T21:51:21.182Z,95089.38
2022-08-02T21:54:31.340Z,95086.66
2022-08-02T21:57:39.737Z,95085.47
2022-08-02T22:00:48.193Z,95092.00
2022-08-02T22:03:59.802Z,95095.41
2022-08-02T22:07:08.113Z,95091.59
2022-08-02T22:10:16.972Z,95093.91
2022-08-02T22:13:25.452Z,95095.81
2022-08-02T22:16:46.760Z,95087.34
2022-08-02T22:19:59.935Z,95089.28
2022-08-02T22:23:13.051Z,95090.03
2022-08-02T22:26:37.769Z,95091.56
2022-08-02T22:29:46.096Z,95089.94
2022-08-02T22:33:15.368Z,95101.00
2022-08-02T22:36:28.240Z,95104.44
2022-08-02T22:39:36.961Z,95102.16
2022-08-02T22:43:05.565Z,95104.75
2022-08-02T22:46:15.450Z,95104.00
2022-08-02T22:49:38.567Z,95103.50
2022-08-02T22:52:54.972Z,95104.22
2022-08-02T22:56:03.201Z,95106.56
2022-08-02T22:58:41.050Z,95059.09
2022-08-02T22:58:44.221Z,95072.72
2022-08-02T22:58:59.611Z,95096.97
2022-08-02T23:02:25.042Z,95108.81
2022-08-02T23:05:33.626Z,95106.09
2022-08-02T23:08:43.224Z,95104.63
2022-08-02T23:11:51.397Z,95106.91
2022-08-02T23:14:59.769Z,95112.84
2022-08-02T23:18:25.784Z,95107.78
2022-08-02T23:22:01.098Z,95112.84
2022-08-02T23:25:06.895Z,95107.44
2022-08-02T23:28:15.341Z,95107.09
2022-08-02T23:31:38.002Z,95109.78
2022-08-02T23:34:47.357Z,95115.00
2022-08-02T23:38:00.248Z,95109.56
2022-08-02T23:41:11.052Z,95114.81
2022-08-02T23:44:19.481Z,95106.47
2022-08-02T23:47:27.604Z,95121.31
2022-08-02T23:50:35.740Z,95119.31
2022-08-02T23:53:44.632Z,95115.78
2022-08-02T23:56:55.059Z,95113.81
